Time;durP1;ratioP1;P1;durP2;ratioP2;P2;SDS_P1;SDS_P2;PMS_P1;PMS_P2;Temp;Humidity;BMP_temperature;BMP_pressure;BME280_temperature;BME280_humidity;BME280_pressure;Samples;Min_cycle;Max_cycle;Signal;HPM_P1;HPM_P2
2022/10/04 00:00:57;;;;;;;1.35;0.20;;;;;;;14.92;96.38;101202.22;5017603;28;20040;-89
2022/10/04 00:03:50;;;;;;;1.08;0.30;;;;;;;14.76;94.01;101209.97;5021861;28;20037;-86
2022/10/04 00:06:23;;;;;;;2.65;0.20;;;;;;;14.77;94.26;101207.19;5020618;28;20037;-89
2022/10/04 00:08:57;;;;;;;0.90;0.30;;;;;;;14.75;97.01;101211.75;5018964;28;20039;-87
2022/10/04 00:11:36;;;;;;;1.38;0.40;;;;;;;14.68;96.22;101212.53;5038336;28;20029;-89
2022/10/04 00:14:08;;;;;;;1.85;0.20;;;;;;;14.87;94.66;101202.69;5036895;28;20033;-88
2022/10/04 00:16:39;;;;;;;3.78;0.20;;;;;;;14.97;92.86;101207.00;5016839;28;20115;-87
2022/10/04 00:19:14;;;;;;;1.92;0.20;;;;;;;15.07;88.03;101205.09;5040417;28;20482;-87
2022/10/04 00:21:52;;;;;;;0.60;0.30;;;;;;;15.05;87.73;101207.03;5017759;28;20385;-85
2022/10/04 00:24:26;;;;;;;1.10;0.20;;;;;;;15.25;86.47;101211.06;5037201;28;20037;-85
2022/10/04 00:26:52;;;;;;;3.55;0.30;;;;;;;15.19;91.28;101212.53;5016416;28;20077;-88
2022/10/04 00:29:29;;;;;;;4.40;0.60;;;;;;;14.83;93.46;101211.81;5020620;28;20065;-88
2022/10/04 00:32:07;;;;;;;2.33;0.30;;;;;;;14.57;96.27;101208.38;5018009;28;20031;-88
2022/10/04 00:34:48;;;;;;;3.13;0.20;;;;;;;14.42;98.14;101209.88;5028908;28;20091;-88
2022/10/04 00:37:17;;;;;;;1.92;0.30;;;;;;;14.34;100.00;101213.22;5038349;28;20037;-87
2022/10/04 00:39:45;;;;;;;1.33;0.30;;;;;;;14.16;100.00;101213.25;5017261;28;20094;-88
2022/10/04 00:42:19;;;;;;;1.15;0.30;;;;;;;13.99;100.00;101214.06;5029524;28;20060;-87
2022/10/04 00:45:01;;;;;;;0.65;0.20;;;;;;;13.84;100.00;101223.38;5015514;28;20088;-86
2022/10/04 00:48:24;;;;;;;2.25;0.70;;;;;;;13.66;100.00;101222.53;5011122;28;20060;-85
2022/10/04 00:51:20;;;;;;;0.98;0.30;;;;;;;13.53;100.00;101217.63;5003744;28;20481;-88
2022/10/04 00:53:52;;;;;;;1.02;0.30;;;;;;;13.42;100.00;101213.41;5030069;28;20040;-90
2022/10/04 00:56:34;;;;;;;1.67;0.30;;;;;;;13.33;100.00;101214.28;5037454;28;20029;-90
2022/10/04 00:59:07;;;;;;;1.20;0.30;;;;;;;13.25;100.00;101211.53;5021555;28;20032;-87
2022/10/04 01:01:36;;;;;;;1.92;0.43;;;;;;;13.17;100.00;101214.06;5018831;28;20064;-88
2022/10/04 01:04:12;;;;;;;3.05;0.52;;;;;;;13.09;100.00;101209.53;5023374;28;20082;-87
2022/10/04 01:06:40;;;;;;;3.67;0.40;;;;;;;12.95;100.00;101210.78;5017019;28;20037;-90
2022/10/04 01:09:10;;;;;;;0.77;0.30;;;;;;;12.93;100.00;101206.66;5040273;28;20028;-88
2022/10/04 01:11:50;;;;;;;1.85;0.30;;;;;;;12.89;100.00;101206.13;5023747;28;20040;-88
2022/10/04 01:14:30;;;;;;;1.48;0.32;;;;;;;12.86;100.00;101206.41;5032628;28;20038;-89
2022/10/04 01:16:56;;;;;;;1.25;0.40;;;;;;;12.96;100.00;101207.22;5022142;28;20064;-88
2022/10/04 01:19:22;;;;;;;7.28;0.40;;;;;;;13.01;100.00;101203.34;5035237;28;20690;-89
2022/10/04 01:22:06;;;;;;;3.22;0.30;;;;;;;13.02;100.00;101210.22;5033287;28;20029;-89
2022/10/04 01:24:39;;;;;;;17.05;1.15;;;;;;;12.99;100.00;101202.66;5017301;28;20048;-87
2022/10/04 01:27:41;;;;;;;1.70;0.50;;;;;;;12.94;100.00;101206.53;5039493;28;20032;-88
2022/10/04 01:30:12;;;;;;;1.35;0.30;;;;;;;12.87;100.00;101199.38;5013636;28;20397;-88
2022/10/04 01:32:38;;;;;;;1.13;0.30;;;;;;;12.80;100.00;101203.53;5017486;28;20392;-88
2022/10/04 01:35:07;;;;;;;2.78;0.40;;;;;;;12.77;100.00;101203.81;5039161;28;20032;-88
2022/10/04 01:37:32;;;;;;;1.02;0.40;;;;;;;12.78;100.00;101208.06;5030064;28;20029;-89
2022/10/04 01:39:58;;;;;;;1.33;0.30;;;;;;;12.78;100.00;101211.50;5016020;28;20041;-89
2022/10/04 01:42:42;;;;;;;1.75;0.30;;;;;;;12.81;100.00;101207.78;5031184;28;20114;-89
2022/10/04 01:45:18;;;;;;;0.77;0.30;;;;;;;12.91;100.00;101206.81;5037452;28;20039;-88
2022/10/04 01:47:51;;;;;;;1.33;0.30;;;;;;;13.16;100.00;101215.03;5038982;28;20039;-88
2022/10/04 01:50:31;;;;;;;4.63;0.38;;;;;;;13.37;100.00;101204.34;5036323;28;20034;-87
2022/10/04 01:53:12;;;;;;;1.75;0.28;;;;;;;13.43;100.00;101199.34;5040351;28;20045;-88
2022/10/04 01:55:43;;;;;;;0.75;0.50;;;;;;;13.45;100.00;101202.66;5026996;28;21592;-89
2022/10/04 01:58:38;;;;;;;3.13;0.30;;;;;;;13.43;100.00;101198.53;5040142;28;20041;-87
2022/10/04 02:01:15;;;;;;;1.98;0.30;;;;;;;13.34;100.00;101194.16;5000595;28;20045;-85
2022/10/04 02:03:54;;;;;;;2.03;0.35;;;;;;;13.43;100.00;101188.88;5037013;28;20037;-88
2022/10/04 02:06:22;;;;;;;1.05;0.28;;;;;;;13.73;100.00;101189.53;5011662;28;20033;-86
2022/10/04 02:08:50;;;;;;;3.25;0.30;;;;;;;13.77;100.00;101185.66;5022948;28;20123;-86
2022/10/04 02:11:21;;;;;;;1.00;0.20;;;;;;;13.86;100.00;101179.53;5030843;28;20037;-86
2022/10/04 02:13:53;;;;;;;1.58;0.20;;;;;;;13.99;99.83;101180.00;5027263;28;20370;-88
2022/10/04 02:16:20;;;;;;;4.63;0.25;;;;;;;14.23;96.60;101176.75;5014627;28;20220;-86
2022/10/04 02:18:49;;;;;;;4.28;0.50;;;;;;;14.43;95.04;101177.44;5047313;28;20052;-86
2022/10/04 02:21:16;;;;;;;0.38;0.20;;;;;;;14.43;94.84;101177.44;5024358;28;20036;-86
2022/10/04 02:23:43;;;;;;;0.63;0.20;;;;;;;14.35;95.38;101182.59;5015325;28;20032;-86
2022/10/04 02:26:10;;;;;;;0.95;0.20;;;;;;;14.24;96.16;101173.97;5033959;28;20033;-88
2022/10/04 02:28:37;;;;;;;0.82;0.20;;;;;;;14.11;98.48;101172.75;5032049;28;20458;-87
2022/10/04 02:33:52;;;;;;;2.17;0.30;;;;;;;13.74;100.00;101184.16;5035104;28;20048;-89
2022/10/04 02:36:22;;;;;;;1.42;0.45;;;;;;;13.56;100.00;101186.75;5037598;28;20047;-86
2022/10/04 02:38:57;;;;;;;0.50;0.20;;;;;;;13.37;100.00;101188.63;5013475;28;20033;-85
2022/10/04 02:41:30;;;;;;;1.88;0.30;;;;;;;13.16;100.00;101187.09;5031195;28;20096;-85
2022/10/04 02:44:02;;;;;;;0.90;0.30;;;;;;;13.01;100.00;101182.44;5035811;28;20489;-88
2022/10/04 02:46:43;;;;;;;2.80;0.30;;;;;;;12.96;100.00;101194.13;5022950;28;20518;-87
2022/10/04 02:49:26;;;;;;;2.88;0.40;;;;;;;12.77;100.00;101199.41;5021893;28;20105;-87
2022/10/04 02:52:00;;;;;;;2.35;0.50;;;;;;;12.68;100.00;101189.00;5032766;28;20060;-87
2022/10/04 02:54:44;;;;;;;2.40;0.55;;;;;;;12.65;100.00;101192.72;5015980;28;20115;-86
2022/10/04 02:57:18;;;;;;;1.52;0.30;;;;;;;12.64;100.00;101185.84;5018967;28;20532;-88
2022/10/04 02:59:44;;;;;;;3.28;0.40;;;;;;;12.56;100.00;101185.69;5015808;28;20037;-87
2022/10/04 03:02:26;;;;;;;3.10;0.30;;;;;;;12.50;100.00;101191.47;5019911;28;20146;-89
2022/10/04 03:04:55;;;;;;;0.65;0.30;;;;;;;12.53;100.00;101185.97;5033384;28;20037;-87
2022/10/04 03:07:22;;;;;;;2.95;0.50;;;;;;;12.57;100.00;101192.56;5035303;28;20501;-87
2022/10/04 03:09:48;;;;;;;0.93;0.30;;;;;;;12.63;100.00;101192.03;5033396;28;20039;-87
2022/10/04 03:12:14;;;;;;;1.85;0.30;;;;;;;12.64;100.00;101198.91;5035855;28;20203;-87
2022/10/04 03:14:41;;;;;;;3.75;0.30;;;;;;;12.62;100.00;101198.22;5037409;28;20033;-86
2022/10/04 03:17:07;;;;;;;7.35;0.65;;;;;;;12.66;100.00;101194.34;5025051;28;20120;-88
2022/10/04 03:19:34;;;;;;;0.80;0.30;;;;;;;12.79;100.00;101200.09;5031604;28;20033;-87
2022/10/04 03:22:08;;;;;;;9.77;0.90;;;;;;;12.91;100.00;101192.91;5038233;28;20548;-87
2022/10/04 03:24:45;;;;;;;0.50;0.25;;;;;;;13.04;100.00;101197.84;5029509;28;20037;-86
2022/10/04 03:27:16;;;;;;;2.15;0.30;;;;;;;13.13;100.00;101192.56;5032165;28;20037;-88
2022/10/04 03:29:42;;;;;;;1.67;0.30;;;;;;;13.16;100.00;101194.13;5029617;28;20040;-87
2022/10/04 03:32:19;;;;;;;3.35;0.30;;;;;;;13.12;100.00;101190.09;5019699;28;20045;-88
2022/10/04 03:35:06;;;;;;;0.60;0.35;;;;;;;13.02;100.00;101191.91;5034961;28;20432;-89
2022/10/04 03:37:36;;;;;;;3.03;0.30;;;;;;;13.06;100.00;101195.91;5031482;28;20441;-87
2022/10/04 03:40:07;;;;;;;2.45;0.20;;;;;;;13.22;100.00;101193.53;5035501;28;20051;-87
2022/10/04 03:42:35;;;;;;;2.22;0.35;;;;;;;13.37;100.00;101194.69;5028563;28;20065;-88
2022/10/04 03:45:10;;;;;;;1.83;0.40;;;;;;;13.38;100.00;101198.13;5015562;28;20176;-88
2022/10/04 03:47:39;;;;;;;0.80;0.30;;;;;;;13.38;100.00;101206.81;5035699;28;20037;-89
2022/10/04 03:50:16;;;;;;;6.20;0.65;;;;;;;13.33;100.00;101209.03;5015988;28;20120;-88
2022/10/04 03:52:49;;;;;;;1.33;0.50;;;;;;;13.28;100.00;101211.25;5029387;28;20061;-87
2022/10/04 03:55:17;;;;;;;6.97;1.23;;;;;;;13.28;100.00;101212.09;5037695;28;20058;-88
2022/10/04 03:57:43;;;;;;;2.30;0.60;;;;;;;13.31;100.00;101207.53;5027725;28;20021;-87
2022/10/04 04:00:13;;;;;;;4.25;0.40;;;;;;;13.32;100.00;101207.38;5033897;28;20056;-88
2022/10/04 04:02:42;;;;;;;2.83;0.80;;;;;;;13.33;100.00;101211.66;5025019;28;20631;-87
2022/10/04 04:05:31;;;;;;;2.83;0.40;;;;;;;13.35;100.00;101206.28;5030409;28;20157;-87
2022/10/04 04:08:03;;;;;;;2.55;0.50;;;;;;;13.35;100.00;101209.72;5019660;28;20045;-85
2022/10/04 04:10:32;;;;;;;1.48;0.55;;;;;;;13.35;100.00;101211.50;5035837;28;20032;-85
2022/10/04 04:13:04;;;;;;;2.58;0.52;;;;;;;13.32;100.00;101212.63;5030136;28;20572;-85
2022/10/04 04:15:32;;;;;;;4.15;0.30;;;;;;;13.44;100.00;101216.72;5031642;28;20033;-85
2022/10/04 04:18:16;;;;;;;1.23;0.30;;;;;;;13.60;100.00;101214.28;5027204;28;20082;-88
2022/10/04 04:20:43;;;;;;;5.20;0.30;;;;;;;13.68;100.00;101226.66;5029896;28;20025;-87
2022/10/04 04:23:14;;;;;;;4.50;0.20;;;;;;;13.70;97.86;101221.28;5023823;28;20041;-84
2022/10/04 04:25:53;;;;;;;2.55;0.40;;;;;;;13.75;97.37;101229.50;5036888;28;20037;-87
2022/10/04 04:28:31;;;;;;;4.28;0.30;;;;;;;13.76;94.45;101223.28;5019477;28;20408;-85
2022/10/04 04:31:03;;;;;;;0.77;0.20;;;;;;;13.75;100.00;101219.84;5029623;28;20394;-87
2022/10/04 04:33:30;;;;;;;3.55;0.30;;;;;;;13.66;100.00;101225.16;5034095;28;20032;-87
2022/10/04 04:36:04;;;;;;;1.95;0.30;;;;;;;13.58;99.80;101226.72;5032171;28;20120;-87
2022/10/04 04:38:30;;;;;;;4.68;0.32;;;;;;;13.57;100.00;101232.09;5030131;28;20112;-87
2022/10/04 04:40:56;;;;;;;1.48;0.45;;;;;;;13.53;100.00;101231.56;5034153;28;20025;-86
2022/10/04 04:43:26;;;;;;;4.28;0.30;;;;;;;13.53;99.17;101226.31;5028197;28;20052;-86
2022/10/04 04:45:54;;;;;;;5.30;0.30;;;;;;;13.56;98.93;101233.88;5023778;28;20056;-86
2022/10/04 04:48:21;;;;;;;5.13;0.30;;;;;;;13.60;99.80;101243.09;5033708;28;20029;-85
2022/10/04 04:50:54;;;;;;;5.13;0.40;;;;;;;13.58;100.00;101245.03;5013623;28;20441;-86
2022/10/04 04:53:27;;;;;;;1.15;0.50;;;;;;;13.49;100.00;101253.75;5029625;28;20095;-86
2022/10/04 04:56:02;;;;;;;1.92;0.50;;;;;;;13.40;100.00;101262.47;5028892;28;20053;-86
2022/10/04 04:58:40;;;;;;;0.70;0.20;;;;;;;13.36;100.00;101268.94;5028235;28;20112;-86
2022/10/04 05:01:15;;;;;;;3.92;0.60;;;;;;;13.33;100.00;101269.22;5035923;28;20024;-85
2022/10/04 05:03:41;;;;;;;2.97;0.30;;;;;;;13.32;100.00;101275.44;5029155;28;20820;-86
2022/10/04 05:06:30;;;;;;;2.03;0.57;;;;;;;13.27;100.00;101275.03;5036812;28;20033;-86
2022/10/04 05:08:58;;;;;;;4.22;0.60;;;;;;;13.38;100.00;101274.88;5026604;28;20045;-86
2022/10/04 05:11:30;;;;;;;4.07;0.30;;;;;;;13.44;100.00;101274.28;5021070;28;20033;-85
2022/10/04 05:14:09;;;;;;;2.22;0.30;;;;;;;13.46;99.80;101277.59;5034742;28;21485;-85
2022/10/04 05:16:53;;;;;;;1.95;0.55;;;;;;;13.39;96.56;101286.97;5027334;28;20048;-86
2022/10/04 05:19:49;;;;;;;2.88;0.55;;;;;;;13.38;97.46;101287.13;5026533;28;20064;-85
2022/10/04 05:22:20;;;;;;;3.30;0.50;;;;;;;13.37;100.00;101288.91;5013864;28;20053;-86
2022/10/04 05:24:50;;;;;;;3.05;0.40;;;;;;;13.35;100.00;101293.47;5031058;28;20091;-86
2022/10/04 05:27:30;;;;;;;2.30;0.40;;;;;;;13.33;99.76;101297.19;5011950;28;20877;-86
2022/10/04 05:30:26;;;;;;;2.30;0.82;;;;;;;13.31;98.97;101297.34;5012452;28;20032;-86
2022/10/04 05:33:05;;;;;;;1.97;0.33;;;;;;;13.33;98.56;101292.78;5036837;28;20064;-87
2022/10/04 05:35:49;;;;;;;2.15;0.40;;;;;;;13.35;99.88;101290.84;5007916;28;20036;-87
2022/10/04 05:38:34;;;;;;;3.80;0.60;;;;;;;13.34;98.84;101283.97;5029595;28;20429;-87
2022/10/04 05:41:10;;;;;;;4.53;0.65;;;;;;;13.40;100.00;101288.63;5020265;28;20071;-86
2022/10/04 05:43:43;;;;;;;;;;;;;;;13.43;93.89;101277.88;5032333;28;20063;-88
2022/10/04 05:46:09;;;;;;;4.03;0.70;;;;;;;13.53;100.00;101286.53;5033225;28;20434;-86
2022/10/04 05:48:35;;;;;;;1.50;0.52;;;;;;;13.59;99.08;101285.97;5016121;28;20037;-85
2022/10/04 05:51:00;;;;;;;2.03;0.50;;;;;;;13.60;98.30;101285.00;5031147;28;20029;-86
2022/10/04 05:53:35;;;;;;;1.63;0.30;;;;;;;13.61;96.02;101296.28;5028447;28;20429;-86
2022/10/04 05:56:41;;;;;;;1.75;0.40;;;;;;;13.58;95.20;101296.56;5029790;28;20033;-85
2022/10/04 05:59:28;;;;;;;4.13;0.63;;;;;;;13.61;97.14;101299.72;5009849;28;20090;-85
2022/10/04 06:02:00;;;;;;;1.00;0.20;;;;;;;13.67;94.99;101307.97;5013650;28;20129;-85
2022/10/04 06:04:47;;;;;;;1.50;0.52;;;;;;;13.74;96.51;101302.00;5029691;28;20151;-85
2022/10/04 06:07:30;;;;;;;2.63;0.52;;;;;;;13.78;97.87;101308.59;5038130;28;20044;-85
2022/10/04 06:10:10;;;;;;;3.25;0.50;;;;;;;13.73;100.00;101317.84;5026376;28;20507;-85
2022/10/04 06:12:57;;;;;;;2.78;0.43;;;;;;;13.67;100.00;101321.91;5027069;28;20033;-85
2022/10/04 06:15:52;;;;;;;1.98;0.40;;;;;;;13.70;98.57;101323.41;5027170;28;20049;-85
2022/10/04 06:18:31;;;;;;;3.92;0.40;;;;;;;13.77;99.14;101321.84;5027102;28;20124;-85
2022/10/04 06:21:19;;;;;;;3.50;0.73;;;;;;;13.78;94.63;101319.06;5026428;28;20485;-85
2022/10/04 06:24:13;;;;;;;3.10;0.40;;;;;;;13.78;93.40;101320.88;5036172;28;20511;-85
2022/10/04 06:26:43;;;;;;;2.88;0.40;;;;;;;13.81;97.15;101307.47;5013185;28;20064;-84
2022/10/04 06:29:24;;;;;;;9.45;0.75;;;;;;;13.83;94.17;101316.03;5015307;28;20057;-86
2022/10/04 06:32:38;;;;;;;6.15;0.65;;;;;;;13.88;91.83;101317.25;5011887;28;20057;-85
2022/10/04 06:35:16;;;;;;;2.38;0.40;;;;;;;13.91;93.00;101324.81;5023323;28;20116;-85
2022/10/04 06:37:47;;;;;;;1.58;0.30;;;;;;;13.96;94.14;101327.00;5037504;28;20025;-85
2022/10/04 06:40:37;;;;;;;5.22;0.40;;;;;;;13.97;91.40;101323.41;5028902;28;20402;-85
2022/10/04 06:43:15;;;;;;;5.07;0.40;;;;;;;14.04;93.63;101329.72;5038012;28;20053;-85
2022/10/04 06:46:18;;;;;;;4.63;0.45;;;;;;;14.10;94.99;101326.53;5033246;28;20110;-86
2022/10/04 06:48:44;;;;;;;6.03;0.55;;;;;;;14.15;98.16;101331.31;5026335;28;20057;-86
2022/10/04 06:51:21;;;;;;;4.03;0.47;;;;;;;14.19;99.04;101336.09;5033340;28;20112;-87
2022/10/04 06:54:12;;;;;;;2.17;0.50;;;;;;;14.23;100.00;101334.00;5037189;28;20147;-86
2022/10/04 06:57:05;;;;;;;2.38;0.50;;;;;;;14.32;100.00;101337.53;5029542;28;20045;-84
2022/10/04 06:59:40;;;;;;;4.63;0.73;;;;;;;14.32;99.60;101341.00;5029822;28;20400;-84
2022/10/04 07:02:18;;;;;;;2.08;1.30;;;;;;;14.38;97.88;101342.22;5021803;28;20071;-85
2022/10/04 07:04:45;;;;;;;5.90;0.47;;;;;;;14.46;99.10;101344.94;5037333;28;20056;-85
2022/10/04 07:07:36;;;;;;;1.17;0.30;;;;;;;14.52;94.60;101347.81;5036108;28;20073;-84
2022/10/04 07:10:24;;;;;;;4.88;0.30;;;;;;;14.60;97.53;101352.31;5021426;28;20106;-85
2022/10/04 07:13:27;;;;;;;1.52;0.30;;;;;;;14.59;91.38;101351.47;5017472;28;20044;-85
2022/10/04 07:16:12;;;;;;;6.63;0.65;;;;;;;14.59;94.06;101364.59;5028369;28;20067;-84
2022/10/04 07:18:48;;;;;;;4.72;0.55;;;;;;;14.57;92.41;101365.72;5029469;28;20350;-86
2022/10/04 07:21:16;;;;;;;2.38;0.40;;;;;;;14.60;94.51;101370.66;5030973;28;20763;-85
2022/10/04 07:23:52;;;;;;;3.13;0.52;;;;;;;14.62;92.24;101363.47;5031999;28;20029;-84
2022/10/04 07:26:28;;;;;;;4.75;0.50;;;;;;;14.67;92.00;101361.19;5010074;28;20037;-84
2022/10/04 07:31:44;;;;;;;1.38;0.30;;;;;;;14.81;94.68;101376.44;5031336;28;20512;-81
2022/10/04 07:34:16;;;;;;;1.50;0.40;;;;;;;14.89;92.89;101378.31;5034750;28;20037;-85
2022/10/04 07:36:58;;;;;;;2.78;0.30;;;;;;;14.97;91.06;101388.88;5033659;28;20103;-87
2022/10/04 07:39:29;;;;;;;0.82;0.30;;;;;;;15.03;93.41;101388.28;5030525;28;20044;-85
2022/10/04 07:41:58;;;;;;;3.70;0.43;;;;;;;15.05;93.38;101381.09;5012005;28;20432;-85
2022/10/04 07:44:38;;;;;;;1.30;0.40;;;;;;;15.07;92.19;101375.69;5015015;28;20021;-84
2022/10/04 07:47:24;;;;;;;2.67;0.63;;;;;;;15.10;93.29;101380.63;5029015;28;20037;-84
2022/10/04 07:49:52;;;;;;;;;;;;;;;15.00;87.75;101380.72;5012689;28;20065;-85
2022/10/04 07:52:36;;;;;;;1.33;0.30;;;;;;;14.93;89.90;101390.97;5023037;28;19921;-85
2022/10/04 07:55:41;;;;;;;1.92;0.38;;;;;;;14.93;90.52;101392.78;5028981;28;20060;-85
2022/10/04 07:58:42;;;;;;;1.00;0.40;;;;;;;14.91;90.28;101385.06;5031494;28;20052;-85
2022/10/04 08:01:27;;;;;;;3.00;0.47;;;;;;;14.93;90.72;101387.53;5034210;28;20055;-82
2022/10/04 08:04:08;;;;;;;4.22;0.65;;;;;;;14.98;89.38;101390.53;5028926;28;20040;-82
2022/10/04 08:06:51;;;;;;;4.78;0.55;;;;;;;15.10;91.89;101381.47;5033506;28;20130;-83
2022/10/04 08:09:25;;;;;;;1.50;0.30;;;;;;;15.26;90.99;101384.19;5035000;28;20025;-83
2022/10/04 08:12:04;;;;;;;1.40;0.30;;;;;;;15.39;88.81;101381.16;5032195;28;20037;-83
2022/10/04 08:14:51;;;;;;;2.28;0.30;;;;;;;15.53;89.14;101388.50;5021822;28;20041;-83
2022/10/04 08:17:34;;;;;;;0.80;0.20;;;;;;;15.67;87.30;101384.47;5032276;28;20056;-83
2022/10/04 08:20:18;;;;;;;1.90;0.22;;;;;;;15.64;88.84;101374.28;5034459;28;20123;-83
2022/10/04 08:23:14;;;;;;;1.27;0.30;;;;;;;15.65;85.77;101386.44;5033740;28;20385;-84
2022/10/04 08:25:55;;;;;;;3.75;0.40;;;;;;;15.77;86.36;101381.75;5027788;28;20095;-83
2022/10/04 08:31:39;;;;;;;4.40;0.77;;;;;;;15.86;88.78;101383.44;5026953;28;20115;-82
2022/10/04 08:34:43;;;;;;;0.85;0.30;;;;;;;15.92;83.97;101390.72;5032180;28;20037;-83
2022/10/04 08:37:34;;;;;;;0.88;0.20;;;;;;;15.95;86.41;101385.13;5032513;28;20103;-83
2022/10/04 08:40:18;;;;;;;2.53;0.30;;;;;;;16.05;89.42;101377.97;5027179;28;20061;-83
2022/10/04 08:42:52;;;;;;;2.83;0.32;;;;;;;16.14;83.96;101366.47;5026986;28;20057;-83
2022/10/04 08:45:55;;;;;;;2.33;0.30;;;;;;;16.14;82.28;101384.88;5035803;28;20041;-82
2022/10/04 08:48:39;;;;;;;4.18;0.30;;;;;;;16.15;83.52;101389.16;5034781;28;20343;-83
2022/10/04 08:51:19;;;;;;;3.97;0.47;;;;;;;16.12;83.58;101399.16;5027801;28;20036;-83
2022/10/04 08:53:48;;;;;;;4.20;0.40;;;;;;;16.10;87.15;101401.13;5029485;28;20141;-82
2022/10/04 08:56:44;;;;;;;3.67;0.40;;;;;;;16.08;84.25;101398.66;5028140;28;20108;-82
2022/10/04 08:59:48;;;;;;;3.97;0.30;;;;;;;16.06;82.17;101403.25;5038629;28;20032;-82
2022/10/04 09:02:46;;;;;;;0.93;0.22;;;;;;;16.04;82.55;101407.84;5000386;28;20045;-82
2022/10/04 09:05:40;;;;;;;1.55;0.20;;;;;;;16.03;84.12;101402.75;5029397;28;20791;-83
2022/10/04 09:08:27;;;;;;;0.80;0.30;;;;;;;16.05;86.13;101412.13;5030630;28;21288;-84
2022/10/04 09:11:03;;;;;;;0.98;0.40;;;;;;;16.11;88.07;101408.84;5011992;28;20041;-82
2022/10/04 09:13:36;;;;;;;3.65;0.65;;;;;;;16.30;86.78;101406.97;5026068;28;20128;-83
2022/10/04 09:16:16;;;;;;;4.18;0.20;;;;;;;16.44;84.80;101395.84;5033568;28;20040;-82
2022/10/04 09:19:10;;;;;;;1.80;0.88;;;;;;;16.55;85.30;101396.34;5033259;28;20112;-83
2022/10/04 09:21:45;;;;;;;2.72;0.40;;;;;;;16.58;86.04;101392.56;5009742;28;20115;-82
2022/10/04 09:24:50;;;;;;;2.30;0.40;;;;;;;16.56;85.20;101397.16;5033260;28;20043;-82
2022/10/04 09:27:27;;;;;;;3.70;0.52;;;;;;;16.53;88.06;101397.50;5012417;28;20122;-83
2022/10/04 09:30:13;;;;;;;2.35;0.60;;;;;;;16.61;86.05;101400.13;5029193;28;20044;-82
2022/10/04 09:32:58;;;;;;;;;;;;;;;16.66;83.74;101395.25;5028972;28;20087;-81
2022/10/04 09:35:45;;;;;;;0.60;0.20;;;;;;;16.79;84.28;101408.75;5017474;28;19968;-81
2022/10/04 09:38:47;;;;;;;3.47;0.40;;;;;;;17.01;80.26;101407.31;5026133;28;20049;-79
2022/10/04 09:41:21;;;;;;;1.75;0.20;;;;;;;17.09;85.41;101404.66;5033028;28;20408;-80
2022/10/04 09:44:02;;;;;;;4.35;0.22;;;;;;;17.17;81.52;101394.13;5025422;28;21191;-80
2022/10/04 09:46:36;;;;;;;1.48;0.30;;;;;;;17.19;85.19;101396.59;5033945;28;20045;-82
2022/10/04 09:49:16;;;;;;;3.92;0.32;;;;;;;17.24;83.80;101392.50;5030552;28;20103;-80
2022/10/04 09:52:29;;;;;;;1.35;0.30;;;;;;;17.32;79.55;101394.31;5031523;28;20559;-79
2022/10/04 09:55:36;;;;;;;2.35;0.30;;;;;;;17.33;79.27;101395.13;5024983;28;20045;-80
2022/10/04 09:58:34;;;;;;;1.20;0.20;;;;;;;17.34;84.95;101388.88;4944387;28;20445;-79
2022/10/04 10:01:11;;;;;;;1.50;0.20;;;;;;;17.36;81.34;101392.97;4929008;29;20045;-80
2022/10/04 10:03:55;;;;;;;2.70;0.22;;;;;;;17.45;78.49;101389.34;4916108;29;20048;-80
2022/10/04 10:06:48;;;;;;;1.23;0.30;;;;;;;17.55;78.66;101383.88;4925023;29;20035;-79
2022/10/04 10:15:58;;;;;;;1.23;0.57;;;;;;;17.71;79.50;101388.34;4936582;29;20074;-80
2022/10/04 10:18:26;;;;;;;2.25;0.75;;;;;;;17.77;84.10;101374.47;4888647;29;20088;-80
2022/10/04 10:21:12;;;;;;;0.73;0.20;;;;;;;17.72;82.71;101379.44;4879825;29;20512;-80
2022/10/04 10:23:42;;;;;;;6.70;0.35;;;;;;;17.80;85.50;101387.31;4884139;29;20067;-81
2022/10/04 10:26:40;;;;;;;1.75;0.20;;;;;;;17.87;84.93;101383.84;4885638;29;20044;-80
2022/10/04 10:29:42;;;;;;;2.22;0.52;;;;;;;17.97;81.25;101381.00;4871693;29;20823;-80
2022/10/04 10:32:22;;;;;;;1.27;0.30;;;;;;;18.11;85.28;101382.91;4886455;29;20549;-80
2022/10/04 10:35:25;;;;;;;5.28;0.47;;;;;;;18.24;83.88;101380.56;4889431;29;20052;-80
2022/10/04 10:38:09;;;;;;;2.30;0.30;;;;;;;18.29;84.53;101376.59;4933258;28;20173;-79
2022/10/04 10:40:39;;;;;;;3.78;0.50;;;;;;;18.39;84.02;101382.47;4938915;29;20046;-80
2022/10/04 10:43:24;;;;;;;2.00;0.20;;;;;;;18.49;83.50;101385.69;4935905;29;20051;-80
2022/10/04 10:46:05;;;;;;;1.88;0.30;;;;;;;18.55;84.80;101385.00;4938408;28;20047;-79
2022/10/04 10:48:31;;;;;;;3.03;0.22;;;;;;;18.53;86.56;101379.88;4938221;28;20545;-80
2022/10/04 10:51:12;;;;;;;1.35;0.30;;;;;;;18.48;86.65;101382.22;4939000;29;20031;-80
2022/10/04 10:53:56;;;;;;;1.63;0.20;;;;;;;18.60;88.65;101385.31;4937342;29;20032;-80
2022/10/04 10:56:34;;;;;;;0.73;0.20;;;;;;;18.69;88.59;101379.00;5030499;28;20071;-79
2022/10/04 10:59:36;;;;;;;8.13;0.47;;;;;;;18.78;86.98;101377.97;5039010;28;20095;-79
2022/10/04 11:02:24;;;;;;;3.25;0.55;;;;;;;18.85;89.72;101376.25;5030698;28;20124;-79
2022/10/04 11:05:02;;;;;;;0.88;0.20;;;;;;;18.83;89.94;101375.63;5034529;28;20211;-78
2022/10/04 11:07:50;;;;;;;2.28;0.20;;;;;;;18.82;89.43;101370.50;5034329;28;20045;-78
2022/10/04 11:10:46;;;;;;;1.38;0.30;;;;;;;18.72;90.00;101376.00;5032630;28;20488;-79
2022/10/04 11:13:36;;;;;;;2.03;0.20;;;;;;;18.59;87.10;101373.09;5035892;28;20411;-79
2022/10/04 11:16:18;;;;;;;5.15;0.30;;;;;;;18.65;89.38;101376.88;5033779;28;20049;-79
2022/10/04 11:18:44;;;;;;;0.70;0.30;;;;;;;18.69;90.15;101368.44;5035672;28;20068;-79
2022/10/04 11:21:15;;;;;;;1.15;0.30;;;;;;;18.79;89.65;101360.28;5032703;28;20433;-79
2022/10/04 11:24:02;;;;;;;2.10;0.20;;;;;;;18.70;89.55;101361.34;5035000;28;20087;-80
2022/10/04 11:26:39;;;;;;;1.40;0.30;;;;;;;18.75;91.88;101364.28;5032364;28;20041;-80
2022/10/04 11:29:23;;;;;;;1.60;0.20;;;;;;;18.79;89.26;101371.69;5030113;28;20040;-79
2022/10/04 11:32:18;;;;;;;1.20;0.20;;;;;;;18.84;88.94;101364.06;5029545;28;20652;-78
2022/10/04 11:34:43;;;;;;;2.30;0.20;;;;;;;18.92;89.02;101357.03;5027792;28;20036;-79
2022/10/04 11:37:42;;;;;;;3.72;0.25;;;;;;;18.76;84.78;101355.38;5036284;28;20279;-79
2022/10/04 11:40:45;;;;;;;2.25;0.20;;;;;;;18.62;85.03;101356.13;5035179;28;20045;-79
2022/10/04 11:43:39;;;;;;;1.98;0.30;;;;;;;18.62;86.70;101350.84;5039514;28;20059;-79
2022/10/04 11:46:53;;;;;;;2.88;0.20;;;;;;;18.66;82.70;101347.69;5031469;28;20041;-79
2022/10/04 11:49:45;;;;;;;4.18;0.30;;;;;;;18.65;81.62;101343.41;4961202;28;20046;-80
2022/10/04 11:52:36;;;;;;;1.08;0.30;;;;;;;18.60;84.43;101343.09;5016418;28;20968;-79
2022/10/04 11:55:22;;;;;;;2.92;0.40;;;;;;;18.47;87.24;101343.63;5032158;28;20497;-79
2022/10/04 11:58:01;;;;;;;1.00;0.30;;;;;;;18.55;85.95;101350.69;5028996;28;20409;-81
2022/10/04 12:01:00;;;;;;;1.98;0.28;;;;;;;18.58;85.13;101337.16;5031288;28;20037;-80
2022/10/04 12:04:02;;;;;;;2.30;0.30;;;;;;;18.73;83.90;101335.44;5035820;28;20040;-79
2022/10/04 12:07:08;;;;;;;1.77;0.20;;;;;;;18.72;82.13;101335.59;5030387;28;20075;-79
2022/10/04 12:09:40;;;;;;;4.97;0.32;;;;;;;18.75;88.07;101335.25;5036778;28;20677;-79
2022/10/04 12:12:36;;;;;;;1.13;0.20;;;;;;;18.76;88.07;101332.44;5034559;28;20037;-80
2022/10/04 12:15:06;;;;;;;1.80;0.50;;;;;;;18.81;89.83;101334.53;5031857;28;20469;-80
2022/10/04 12:17:56;;;;;;;1.17;0.20;;;;;;;18.82;89.94;101328.28;5034295;28;20063;-80
2022/10/04 12:20:33;;;;;;;0.85;0.20;;;;;;;18.82;92.08;101329.09;5032839;28;20032;-81
2022/10/04 12:23:09;;;;;;;1.85;0.30;;;;;;;18.80;92.24;101328.44;5033175;28;20439;-80
2022/10/04 12:26:06;;;;;;;1.75;0.25;;;;;;;18.79;91.38;101340.00;5032208;28;20032;-80
2022/10/04 12:29:03;;;;;;;6.10;0.40;;;;;;;18.74;90.27;101334.44;5030175;28;20091;-80
2022/10/04 12:31:39;;;;;;;1.58;0.30;;;;;;;18.76;91.07;101329.78;4993824;28;20562;-81
2022/10/04 12:34:12;;;;;;;1.08;0.30;;;;;;;18.83;91.87;101328.09;5031189;28;20117;-80